Flight Track Log - Related Links

Times and Time Zones

All times are in EDT time to prevent confusion due to time zone crossing. See the ASQ5958 flight status page for this flight to view local times or setup timezone preferences in your user account.

Time Position Orientation Groundspeed Altitude Reporting Facility
EDT Latitude Longitude Course Direction KTS MPH feet Rate Location/Type
Sat 06:44:46 36.1500 -86.7000 64° Northeast 177 204 1,100  Level Nashville TRACON
Sat 06:45:22 36.1500 -86.7333 270° West 178 205 2,400 2,000 Climbing Nashville TRACON
Sat 06:46:22 36.1667 -86.8000 287° West 209 241 4,300 1,800 Climbing Nashville TRACON
Sat 06:47:00 36.1608 -86.2963 76° East  Level FlightAware Approximate
Sat 06:47:22 36.2167 -86.7667 28° Northeast 255 293 6,000  Level Nashville TRACON
Sat 06:48:00 36.1846 -86.1745 80° East  Level FlightAware Approximate
Sat 06:48:22 36.2167 -86.6833 90° East 279 321 7,800  Level Nashville TRACON
Sat 06:49:00 36.2057 -86.0524 64° Northeast  Level FlightAware Approximate
Sat 06:49:16 36.2097 -86.5886 95° East 297 342 9,200  Level Memphis Center
Sat 06:50:16 36.2086 -86.4858 91° East 317 365 10,400 1,000 Climbing Memphis Center
Sat 06:51:16 36.2047 -86.3650 92° East 327 376 11,200 1,100 Climbing Memphis Center
Sat 06:52:16 36.2028 -86.2442 91° East 342 394 12,600 1,300 Climbing Memphis Center
Sat 06:53:16 36.2008 -86.1183 91° East 357 411 13,800 1,250 Climbing Memphis Center
Sat 06:54:16 36.2303 -86.0036 72° East 350 403 15,100 1,171 Climbing Memphis Center
Sat 06:56:00 36.3111 -85.8219 61° Northeast 366 421 17,000 1,024 Climbing Indianapolis Center
Sat 06:57:00 36.3639 -85.7111 59° Northeast 365 420 17,900 942 Climbing Indianapolis Center
Sat 06:58:01 36.4119 -85.6100 59° Northeast 365 420 18,900 1,041 Climbing Indianapolis Center
Sat 06:59:01 36.4650 -85.4989 59° Northeast 369 425 20,000 1,041 Climbing Indianapolis Center
Sat 07:00:02 36.5167 -85.3872 60° Northeast 371 427 21,000 1,041 Climbing Indianapolis Center
Sat 07:01:02 36.5719 -85.2717 59° Northeast 381 438 22,100 1,091 Climbing Indianapolis Center
Sat 07:02:03 36.6222 -85.1547 62° Northeast 383 441 23,200 1,041 Climbing Indianapolis Center
Sat 07:03:03 36.6614 -85.0269 69° East 389 448 24,200 1,041 Climbing Indianapolis Center
Sat 07:04:04 36.7000 -84.8992 69° East 391 450 25,300 984 Climbing Indianapolis Center
Sat 07:05:05 36.7397 -84.7714 69° East 393 452 26,200 843 Climbing Indianapolis Center
Sat 07:06:05 36.7786 -84.6417 69° East 399 459 27,000 744 Climbing Indianapolis Center
Sat 07:07:06 36.8211 -84.5044 69° East 403 464 27,700 793 Climbing Indianapolis Center
Sat 07:08:06 36.8606 -84.3706 70° East 409 471 28,600 992 Climbing Indianapolis Center
Sat 07:09:07 36.9011 -84.2389 69° East 406 467 29,700 1,041 Climbing Indianapolis Center
Sat 07:10:07 36.9389 -84.1081 70° East 401 461 30,700 1,041 Climbing Indianapolis Center
Sat 07:11:08 36.9772 -83.9789 70° East 395 455 31,800 1,033 Climbing Indianapolis Center
Sat 07:12:09 37.0161 -83.8500 69° East 394 453 32,800 893 Climbing Indianapolis Center
Sat 07:13:09 37.0561 -83.7206 69° East 396 456 33,600 744 Climbing Indianapolis Center
Sat 07:14:10 37.0931 -83.5897 70° East 399 459 34,300 689 Climbing Indianapolis Center
Sat 07:15:11 37.1322 -83.4572 70° East 403 464 35,000 347 Climbing Indianapolis Center
Sat 07:16:11 37.1719 -83.3211 70° East 413 475 35,000  Level Indianapolis Center
Sat 07:17:12 37.2142 -83.1761 70° East 434 499 35,000  Level Indianapolis Center
Sat 07:18:13 37.2644 -82.9986 70° East 457 526 35,000  Level Indianapolis Center
Sat 07:19:13 37.3019 -82.8692 70° East 466 536 35,000  Level Indianapolis Center
Sat 07:20:14 37.3536 -82.6853 70° East 475 547 35,000  Level Indianapolis Center
Sat 07:21:15 37.3964 -82.5311 71° East 468 539 35,000  Level Indianapolis Center
Sat 07:22:15 37.4406 -82.3761 70° East 469 540 35,000  Level Indianapolis Center
Sat 07:23:16 37.4836 -82.2233 70° East 464 534 35,000  Level Indianapolis Center
Sat 07:24:17 37.5247 -82.0706 71° East 461 531 35,000  Level Indianapolis Center
Sat 07:25:18 37.5661 -81.9197 71° East 456 525 35,000  Level Indianapolis Center
Sat 07:26:18 37.6078 -81.7694 71° East 453 521 35,000  Level Indianapolis Center
Sat 07:27:19 37.6478 -81.6211 71° East 448 516 35,000  Level Indianapolis Center
Sat 07:28:20 37.6842 -81.4858 71° East 447 514 35,000  Level Indianapolis Center
Sat 07:29:20 37.7222 -81.3397 72° East 449 517 35,000  Level Indianapolis Center
Sat 07:30:21 37.7703 -81.1642 71° East 453 521 35,000  Level Indianapolis Center
Sat 07:31:22 37.7883 -81.0097 82° East 457 526 35,000  Level Indianapolis Center
Sat 07:32:23 37.7986 -80.8522 85° East 461 531 35,000  Level Indianapolis Center
Sat 07:33:23 37.8081 -80.6953 86° East 461 531 35,000  Level Indianapolis Center
Sat 07:34:24 37.8206 -80.5136 85° East 465 535 35,000  Level Indianapolis Center
Sat 07:35:25 37.8300 -80.3467 86° East 463 533 35,000  Level Indianapolis Center
Sat 07:36:08 37.8367 -80.2539 85° East 460 529 35,000  Level Washington Center
Sat 07:37:09 37.8472 -80.0861 85° East 460 529 35,000  Level Washington Center
Sat 07:38:10 37.8597 -79.9108 85° East 460 529 35,000  Level Washington Center
Sat 07:39:11 37.8678 -79.7456 86° East 460 529 35,000  Level Washington Center
Sat 07:40:10 37.8797 -79.5803 85° East 460 529 35,000  Level Washington Center
Sat 07:41:10 37.8892 -79.4150 86° East 460 529 35,000  Level Washington Center
Sat 07:42:11 37.8964 -79.2522 87° East 460 529 35,000  Level Washington Center
Sat 07:43:09 37.9050 -79.1028 86° East 460 529 35,000  Level Washington Center
Sat 07:44:10 37.9242 -78.9403 81° East 460 529 35,000  Level Washington Center
Sat 07:45:09 37.9433 -78.7806 81° East 460 529 35,000  Level Washington Center
Sat 07:46:09 37.9619 -78.6156 82° East 460 529 35,000  Level Washington Center
Sat 07:47:10 37.9828 -78.4528 81° East 465 535 35,000  Level Washington Center
Sat 07:48:11 38.0036 -78.2692 82° East 465 535 35,000  Level Washington Center
Sat 07:49:09 38.0275 -78.1303 78° East 465 535 35,000  Level Washington Center
Sat 07:50:09 38.0928 -77.9953 58° Northeast 436 502 35,000 -149 Level Washington Center
Sat 07:51:10 38.1603 -77.8603 58° Northeast 441 507 34,700 -850 Descending Washington Center
Sat 07:52:09 38.2272 -77.7247 58° Northeast 446 513 33,300 -857 Descending Washington Center
Sat 07:53:09 38.2942 -77.5892 58° Northeast 446 513 33,000 -148 Descending Washington Center
Sat 07:54:11 38.3589 -77.4531 59° Northeast 451 519 33,000  Level Washington Center
Sat 07:55:09 38.4300 -77.3117 57° Northeast 451 519 33,000  Level Washington Center
Sat 07:56:10 38.4964 -77.1753 58° Northeast 451 519 33,000  Level Washington Center
Sat 07:57:09 38.5792 -77.0550 49° Northeast 451 519 33,000  Level Washington Center
Sat 07:58:09 38.6767 -76.9239 46° Northeast 451 519 33,000  Level Washington Center
Sat 07:59:10 38.7633 -76.8031 47° Northeast 456 525 33,000  Level Washington Center
Sat 08:00:11 38.8500 -76.6792 48° Northeast 456 525 33,000  Level Washington Center
Sat 08:01:09 38.9367 -76.5631 46° Northeast 461 531 33,000 -353 Level Washington Center
Sat 08:02:10 39.0208 -76.4411 48° Northeast 461 531 32,300 -1,475 Descending Washington Center
Sat 08:03:11 39.1069 -76.3192 48° Northeast 461 531 30,000 -2,331 Descending Washington Center
Sat 08:04:11 39.1933 -76.1942 48° Northeast 461 531 27,600 -1,500 Descending Washington Center
Sat 08:05:11 39.2792 -76.0850 45° Northeast 471 542 27,000 -305 Descending Washington Center
Sat 08:06:09 39.3775 -75.9700 42° Northeast 471 542 27,000  Level Washington Center
Sat 08:07:10 39.4736 -75.8550 43° Northeast 471 542 27,000 -595 Level Washington Center
Sat 08:08:10 39.5781 -75.7289 43° Northeast 471 542 25,800 -1,918 Descending Washington Center
Sat 08:09:12 39.6719 -75.6186 42° Northeast 466 536 23,100 -2,521 Descending Washington Center
Sat 08:10:09 39.7636 -75.5106 42° Northeast 454 522 20,800 -2,441 Descending Washington Center
Sat 08:11:10 39.8508 -75.4050 43° Northeast 440 506 18,300 -2,410 Descending Washington Center
Sat 08:12:11 39.9381 -75.2992 43° Northeast 428 493 15,900 -2,420 Descending Washington Center
Sat 08:13:09 40.0211 -75.1958 44° Northeast 417 480 13,500 -2,269 Descending Washington Center
Sat 08:14:10 40.0981 -75.1006 43° Northeast 399 459 11,400 -1,424 Descending Washington Center
Sat 08:15:28 40.1833 -75.0000 42° Northeast 302 348 10,200 -1,273 Descending New York TRACON
Sat 08:16:22 40.2333 -74.9333 45° Northeast 296 341 8,600 -1,158 Descending New York TRACON
Sat 08:17:22 40.3000 -74.8500 44° Northeast 300 345 8,000 -350 Descending New York TRACON
Sat 08:18:22 40.3500 -74.7833 45° Northeast 291 335 7,900 -579 Descending New York TRACON
Sat 08:19:16 40.4167 -74.7333 30° Northeast 292 336 6,900 -1,000 Descending New York TRACON
Sat 08:20:16 40.4833 -74.6833 30° Northeast 289 333 6,000 -900 Descending New York TRACON
Sat 08:21:16 40.5500 -74.6167 37° Northeast 285 328 5,100 -526 Descending New York TRACON
Sat 08:22:10 40.6167 -74.5833 21° North 282 325 5,000 -158 Descending New York TRACON
Sat 08:23:10 40.6833 -74.5333 30° Northeast 280 322 4,800 -500 Descending New York TRACON
Sat 08:24:10 40.7667 -74.5000 17° North 284 327 4,000 -444 Descending New York TRACON
Sat 08:24:58 40.8000 -74.4333 57° Northeast 289 333 4,000  Level New York TRACON
Sat 08:26:04 40.8667 -74.3500 43° Northeast 287 330 4,000  Level New York TRACON
Sat 08:26:58 40.9167 -74.2833 45° Northeast 287 330 4,000 -222 Level New York TRACON
Sat 08:27:52 40.9000 -74.2000 105° East 279 321 3,600 -474 Descending New York TRACON
Sat 08:28:52 40.8667 -74.1167 118° Southeast 278 320 3,100 -700 Descending New York TRACON
Sat 08:29:52 40.8000 -74.1000 169° South 246 283 2,200 -947 Descending New York TRACON
Sat 08:30:46 40.7500 -74.1333 207° Southwest 182 209 1,300 -833 Descending New York TRACON
Sat 08:31:40 40.7333 -74.1500 217° Southwest 127 146 700 -667 Descending New York TRACON

Login

Don't have an account? Register now (free) for customized features, flight alerts, and more!